Mora RC

2021-10-22 02:45:00

  • imperial
Date Time Air Temperature Relative Humidity Dewpoint Windchill Heat Index Wind Speed Wind Dir. Rain Solar Radiation Soil Temperature
2m 2m 3m 3m 10cm
US/Mountain F % F F F MPH deg in MJ/m^2 F
max avg avg
2021-10-21 02:55:00 34.0 37.7 10.8 29.6 34.0 4.7 4.9 3.9 273.7 278.6 0.00 0.0000000 50.1
2021-10-21 03:00:00 34.5 36.8 10.8 31.7 34.5 3.3 4.7 3.6 297.7 272.6 0.00 0.0000000 50.0
2021-10-21 03:05:00 35.4 36.7 11.5 32.7 35.4 3.3 5.5 4.1 272.2 269.8 0.00 0.0000000 49.9
2021-10-21 03:10:00 35.8 35.7 11.2 35.8 35.8 2.6 6.7 4.1 263.7 266.3 0.00 0.0000000 49.9
2021-10-21 03:15:00 35.5 35.4 10.7 32.9 35.5 3.3 5.5 3.9 318.1 271.2 0.00 0.0000000 49.8
2021-10-21 03:20:00 35.4 37.3 11.9 32.4 35.4 3.7 5.3 4.1 242.1 267.8 0.00 0.0000000 49.8
2021-10-21 03:25:00 36.8 31.7 9.5 32.8 36.8 4.9 5.3 4.3 278.9 288.6 0.00 0.0000000 49.7
2021-10-21 03:30:00 37.9 31.4 10.2 35.0 37.9 3.8 6.0 4.3 210.6 270.4 0.00 0.0000000 49.7
2021-10-21 03:35:00 37.0 32.7 10.3 33.9 37.0 3.8 5.1 4.1 258.2 263.6 0.00 0.0000000 49.6
2021-10-21 03:40:00 37.5 28.7 7.8 32.8 37.5 5.8 7.4 5.1 218.7 256.5 0.00 0.0000000 49.6
2021-10-21 03:45:00 38.5 26.3 6.8 33.4 38.5 6.9 8.5 5.7 250.1 255.7 0.00 0.0000000 49.5
2021-10-21 03:50:00 38.6 27.5 7.9 34.8 38.6 5.1 7.6 4.8 227.0 257.7 0.00 0.0000000 49.5
2021-10-21 03:55:00 37.7 27.6 7.1 35.2 37.7 3.5 6.3 4.5 215.2 241.5 0.00 0.0000000 49.4
2021-10-21 04:00:00 37.8 26.8 6.6 37.8 37.8 2.8 5.6 4.0 234.8 237.8 0.00 0.0000000 49.4
2021-10-21 04:05:00 38.2 25.5 5.8 33.5 38.2 6.2 7.4 4.5 254.6 252.5 0.00 0.0000000 49.3
2021-10-21 04:10:00 39.2 23.9 5.3 36.9 39.2 3.5 7.1 5.0 306.2 257.7 0.00 0.0000000 49.3
2021-10-21 04:15:00 39.2 23.8 5.2 36.7 39.2 3.7 6.5 4.6 275.3 285.2 0.00 0.0000000 49.2
2021-10-21 04:20:00 39.0 23.4 4.6 34.3 39.0 6.3 6.9 5.0 274.6 283.1 0.00 0.0000000 49.2
2021-10-21 04:25:00 39.5 22.9 4.7 37.7 39.5 3.1 7.8 5.1 277.6 282.5 0.00 0.0000000 49.2
2021-10-21 04:30:00 39.5 22.9 4.6 37.4 39.5 3.3 6.9 4.0 300.9 276.3 0.00 0.0000000 49.1
2021-10-21 04:35:00 40.3 20.1 2.4 35.0 40.3 8.0 8.0 5.9 236.8 266.6 0.00 0.0000000 49.1
2021-10-21 04:40:00 41.3 19.4 2.5 39.0 41.3 3.8 9.9 6.4 264.5 268.8 0.00 0.0000000 49.0
2021-10-21 04:45:00 42.7 16.0 -0.5 37.1 42.7 9.6 9.6 5.2 258.8 279.9 0.00 0.0000000 49.0
2021-10-21 04:50:00 45.3 14.1 -1.0 40.6 45.3 9.0 12.6 7.9 278.2 279.3 0.00 0.0000000 48.9
2021-10-21 04:55:00 45.9 13.9 -0.9 42.5 45.9 6.3 11.0 6.5 259.0 298.8 0.00 0.0000000 48.9
2021-10-21 05:00:00 46.1 14.1 -0.4 42.8 46.1 6.2 8.3 5.7 252.6 274.4 0.00 0.0000000 48.9
2021-10-21 05:05:00 44.0 15.3 -0.4 40.1 44.0 6.7 12.1 7.1 316.4 268.2 0.00 0.0000000 48.8
2021-10-21 05:10:00 45.6 13.0 -2.5 42.5 45.6 5.8 8.1 6.0 253.8 297.9 0.00 0.0000000 48.8
2021-10-21 05:15:00 46.1 14.1 -0.4 43.2 46.1 5.6 11.0 6.9 278.1 279.7 0.00 0.0000000 48.8
2021-10-21 05:20:00 44.3 15.5 0.2 40.6 44.3 6.5 10.6 5.6 254.4 259.5 0.00 0.0000000 48.7
2021-10-21 05:25:00 42.6 15.8 -0.9 38.8 42.6 6.0 7.8 5.6 291.0 262.0 0.00 0.0000000 48.7
2021-10-21 05:30:00 42.5 16.3 -0.2 38.5 42.5 6.3 6.5 5.0 275.4 266.7 0.00 0.0000000 48.7
2021-10-21 05:35:00 43.0 16.0 -0.2 39.2 43.0 6.2 7.8 5.5 265.3 284.1 0.00 0.0000000 48.7
2021-10-21 05:40:00 43.9 15.3 -0.3 39.9 43.9 6.9 11.0 6.3 229.8 273.4 0.00 0.0000000 48.6
2021-10-21 05:45:00 44.4 15.8 0.6 40.4 44.4 7.1 8.3 5.9 243.9 275.2 0.00 0.0000000 48.6
2021-10-21 05:50:00 44.0 16.4 1.1 40.0 44.0 6.9 7.6 5.3 276.6 262.3 0.00 0.0000000 48.6
2021-10-21 05:55:00 44.8 17.1 2.7 43.1 44.8 3.7 7.4 5.5 294.1 272.1 0.00 0.0000000 48.6
2021-10-21 06:00:00 45.2 17.3 3.3 43.1 45.2 4.2 8.0 4.4 279.5 272.6 0.00 0.0000000 48.5
2021-10-21 06:05:00 47.8 16.3 4.1 43.2 47.8 10.5 13.9 8.0 301.9 270.2 0.00 0.0000000 48.5
2021-10-21 06:10:00 47.9 16.9 5.0 44.5 47.9 7.2 9.6 6.5 228.4 266.7 0.00 0.0000000 48.5
2021-10-21 06:15:00 46.8 18.4 6.0 43.4 46.8 6.9 8.3 6.1 272.7 262.2 0.00 0.0000000 48.5
2021-10-21 06:20:00 47.8 18.5 6.8 44.0 47.8 8.0 11.5 7.0 294.5 276.1 0.00 0.0000000 48.5
2021-10-21 06:25:00 48.8 18.2 7.4 46.3 48.8 6.0 11.2 6.5 324.7 292.4 0.00 0.0000000 48.4
2021-10-21 06:30:00 48.3 19.0 7.8 46.1 48.3 5.1 7.6 5.2 315.1 304.0 0.00 0.0000000 48.4
2021-10-21 06:35:00 48.9 18.3 7.5 47.3 48.9 4.4 9.6 5.8 288.5 298.6 0.00 0.0000000 48.4
2021-10-21 06:40:00 49.0 18.2 7.6 46.3 49.0 6.3 10.3 5.0 300.3 290.6 0.00 0.0000000 48.4
2021-10-21 06:45:00 48.4 20.0 9.1 46.6 48.4 4.6 10.3 5.5 283.9 265.5 0.00 0.0000000 48.4
2021-10-21 06:50:00 47.9 19.6 8.2 45.6 47.9 5.1 9.4 5.5 216.2 267.6 0.00 0.0000000 48.4
2021-10-21 06:55:00 46.8 21.0 8.9 45.1 46.8 4.0 8.3 5.1 204.2 252.0 0.00 0.0000000 48.4
2021-10-21 07:00:00 44.6 21.8 7.8 40.6 44.6 7.1 8.5 5.6 241.8 255.7 0.00 0.0000000 48.4
2021-10-21 07:05:00 43.6 23.1 8.3 38.6 43.6 8.8 8.8 5.5 262.8 251.5 0.00 0.0000000 48.3
2021-10-21 07:10:00 42.7 23.2 7.6 38.4 42.7 6.9 9.7 6.6 250.0 251.3 0.00 0.0000000 48.3
2021-10-21 07:15:00 42.0 24.1 7.8 38.1 42.0 6.0 9.4 6.0 277.6 244.1 0.00 0.0000426 48.3
2021-10-21 07:20:00 42.1 23.7 7.6 38.8 42.1 5.1 9.7 5.8 281.6 266.1 0.00 0.0017632 48.3
2021-10-21 07:25:00 41.8 24.6 8.1 37.4 41.8 6.7 9.2 6.6 226.6 256.3 0.00 0.0099749 48.3
2021-10-21 07:30:00 41.7 25.0 8.4 37.9 41.7 5.6 9.0 6.9 260.7 251.0 0.00 0.0146330 48.3
2021-10-21 07:35:00 41.5 25.2 8.5 38.0 41.5 5.3 7.1 5.2 258.9 233.1 0.00 0.0186970 48.3
2021-10-21 07:40:00 41.3 27.5 10.2 39.0 41.3 3.8 6.3 5.1 225.1 224.6 0.00 0.0229340 48.2
2021-10-21 07:45:00 41.2 26.8 9.5 36.7 41.2 6.7 7.2 5.4 260.0 217.2 0.00 0.0271887 48.2
2021-10-21 07:50:00 42.0 26.1 9.7 37.9 42.0 6.3 8.8 6.3 218.9 229.3 0.00 0.0316653 48.2
2021-10-21 07:55:00 42.3 25.0 8.9 38.3 42.3 6.2 6.7 5.6 237.8 229.3 0.00 0.0358734 48.2
2021-10-21 08:00:00 43.8 23.5 8.8 41.1 43.8 4.7 8.0 6.0 274.8 252.7 0.00 0.0403536 48.1
2021-10-21 08:05:00 44.1 25.1 10.6 41.1 44.1 5.3 8.0 6.0 218.4 227.4 0.00 0.0446564 48.1
2021-10-21 08:10:00 44.0 25.4 10.7 41.9 44.0 4.0 6.3 5.1 185.3 222.5 0.00 0.0488416 48.1
2021-10-21 08:15:00 44.6 24.8 10.7 42.0 44.6 4.7 6.0 4.5 210.4 221.0 0.00 0.0532032 48.1
2021-10-21 08:20:00 46.1 23.4 10.7 43.5 46.1 5.1 6.5 4.6 239.8 221.4 0.00 0.0578661 48.1
2021-10-21 08:25:00 47.4 22.9 11.2 45.4 47.4 4.6 7.4 4.6 249.5 233.9 0.00 0.0624110 48.1
2021-10-21 08:30:00 48.8 22.7 12.3 46.3 48.8 5.8 5.8 4.4 273.9 243.6 0.00 0.0669946 48.1
2021-10-21 08:35:00 49.3 21.5 11.5 47.3 49.3 5.1 7.8 4.8 308.9 247.0 0.00 0.0714942 48.1
2021-10-21 08:40:00 49.9 21.9 12.5 47.1 49.9 6.9 6.9 4.4 244.6 243.7 0.00 0.0759923 48.1
2021-10-21 08:45:00 50.9 21.1 12.5 50.9 50.9 6.3 8.0 5.5 270.8 258.1 0.00 0.0807773 48.2
2021-10-21 08:50:00 51.6 20.6 12.4 51.6 51.6 5.1 7.6 5.9 275.7 258.7 0.00 0.0855105 48.2
2021-10-21 08:55:00 52.7 19.0 11.6 52.7 52.7 8.5 8.5 5.1 285.6 268.4 0.00 0.0903797 48.2
2021-10-21 09:00:00 53.3 20.3 13.5 53.3 53.3 2.8 7.6 5.3 260.9 271.2 0.00 0.0949958 48.2
2021-10-21 09:05:00 54.3 17.6 11.1 54.3 54.3 6.7 7.2 4.8 249.5 262.2 0.00 0.0997067 48.3
2021-10-21 09:10:00 55.4 17.8 12.2 55.4 55.4 5.3 6.9 5.0 285.5 257.6 0.00 0.1044301 48.3
2021-10-21 09:15:00 56.0 17.0 11.7 56.0 56.0 4.7 7.1 5.1 266.9 255.5 0.00 0.1089545 48.4
2021-10-21 09:20:00 56.9 16.4 11.6 56.9 56.9 5.3 6.2 4.2 253.7 256.5 0.00 0.1136036 48.5
2021-10-21 09:25:00 57.8 15.0 10.4 57.8 57.8 4.4 6.3 3.6 265.1 269.7 0.00 0.1178250 48.5
2021-10-21 09:30:00 58.4 17.4 14.2 58.4 58.4 2.1 4.9 3.4 64.6 293.1 0.00 0.1223839 48.6
2021-10-21 09:35:00 58.7 17.3 14.3 58.7 58.7 0.8 4.4 2.4 297.1 58.8 0.00 0.1266133 48.7
2021-10-21 09:40:00 59.9 16.2 13.9 59.9 59.9 0.0 3.5 1.0 77.7 70.5 0.00 0.1311155 48.8
2021-10-21 09:45:00 60.9 12.1 8.1 60.9 60.9 4.0 5.1 3.0 75.0 121.2 0.00 0.1354465 48.8
2021-10-21 09:50:00 61.4 12.2 8.6 61.4 61.4 3.7 3.7 2.4 48.9 85.6 0.00 0.1398901 49.0
2021-10-21 09:55:00 62.0 12.0 8.7 62.0 62.0 0.0 3.7 0.9 267.4 48.9 0.00 0.1435671 49.1
2021-10-21 10:00:00 62.4 10.0 5.0 62.4 62.4 3.7 5.8 2.0 290.6 270.3 0.00 0.1482836 49.2
2021-10-21 10:05:00 62.2 11.8 8.6 62.2 62.2 4.6 6.3 3.7 23.8 286.2 0.00 0.1523020 49.3
2021-10-21 10:10:00 63.3 12.7 11.1 63.3 63.3 2.1 4.0 1.4 134.3 221.7 0.00 0.1560601 49.5
2021-10-21 10:15:00 65.1 8.9 4.6 65.1 65.1 1.7 3.5 1.0 236.3 329.9 0.00 0.1597553 49.6
2021-10-21 10:20:00 64.4 11.7 10.0 64.4 64.4 4.7 6.2 3.0 59.0 268.5 0.00 0.1631385 49.8
2021-10-21 10:25:00 64.3 8.2 2.2 64.3 64.3 3.8 4.4 2.9 293.4 307.1 0.00 0.1676316 49.9
2021-10-21 10:30:00 64.2 10.3 7.1 64.2 64.2 6.3 6.7 4.3 113.1 113.9 0.00 0.1713663 50.1
2021-10-21 10:35:00 64.2 8.5 2.9 64.2 64.2 4.9 10.1 6.4 206.1 169.7 0.00 0.1725977 50.3
2021-10-21 10:40:00 64.1 9.7 5.6 64.1 64.1 2.4 6.9 4.4 137.9 179.9 0.00 0.1766291 50.5
2021-10-21 10:45:00 64.7 10.2 7.3 64.7 64.7 4.0 4.7 3.6 128.0 144.6 0.00 0.1817186 50.6
2021-10-21 10:50:00 65.2 9.5 6.1 65.2 65.2 2.8 5.1 3.5 99.4 122.0 0.00 0.1853643 50.8
2021-10-21 10:55:00 65.3 9.4 5.9 65.3 65.3 5.5 5.5 2.6 197.2 150.8 0.00 0.1883037 51.0
2021-10-21 11:00:00 65.3 10.4 8.2 65.3 65.3 2.8 5.3 3.1 112.5 198.2 0.00 0.1898555 51.3
2021-10-21 11:05:00 65.6 9.1 5.4 65.6 65.6 3.0 4.4 3.0 288.2 223.2 0.00 0.1926801 51.5
2021-10-21 11:10:00 65.8 9.5 6.5 65.8 65.8 3.0 5.3 2.7 113.5 128.9 0.00 0.1956298 51.7
2021-10-21 11:15:00 65.6 8.6 4.1 65.6 65.6 2.4 4.6 3.2 123.4 106.9 0.00 0.1988489 52.0
2021-10-21 11:20:00 65.4 9.1 5.3 65.4 65.4 3.8 4.6 3.5 171.1 142.3 0.00 0.2008842 52.3
2021-10-21 11:25:00 66.2 8.1 3.3 66.2 66.2 3.0 3.8 2.3 261.4 196.6 0.00 0.2034778 52.6
2021-10-21 11:30:00 65.7 11.0 9.7 65.7 65.7 2.1 5.1 3.1 346.5 248.9 0.00 0.2046021 52.8
2021-10-21 11:35:00 66.8 10.0 8.3 66.8 66.8 2.2 3.8 2.1 183.7 325.4 0.00 0.2054705 53.2
2021-10-21 11:40:00 67.2 6.5 -0.6 67.2 67.2 4.4 6.2 3.7 129.8 113.9 0.00 0.2086488 53.4
2021-10-21 11:45:00 66.5 6.8 -0.1 66.5 66.5 3.5 4.7 3.0 333.4 84.2 0.00 0.2118106 53.8
2021-10-21 11:50:00 66.8 8.4 4.6 66.8 66.8 1.5 3.7 1.6 231.8 256.7 0.00 0.2126015 54.1
2021-10-21 11:55:00 67.4 8.5 5.3 67.4 67.4 4.9 4.9 2.5 104.2 110.9 0.00 0.2121955 54.4
2021-10-21 12:00:00 67.5 7.7 3.1 67.5 67.5 2.1 6.7 4.3 126.0 121.5 0.00 0.2150816 54.7
2021-10-21 12:05:00 67.7 7.5 2.9 67.7 67.7 3.5 4.7 2.3 208.5 103.4 0.00 0.2098833 55.1
2021-10-21 12:10:00 66.8 6.0 -2.8 66.8 66.8 2.4 6.5 4.9 197.6 196.1 0.00 0.2010293 55.4
2021-10-21 12:15:00 67.3 7.3 1.8 67.3 67.3 4.4 4.6 2.9 50.6 125.0 0.00 0.2192799 55.7
2021-10-21 12:20:00 67.7 7.1 1.7 67.7 67.7 2.4 5.5 3.1 112.0 139.1 0.00 0.2162989 56.0
2021-10-21 12:25:00 67.6 7.4 2.4 67.6 67.6 4.0 6.2 2.8 338.3 215.5 0.00 0.2170499 56.3
2021-10-21 12:30:00 68.4 5.5 -3.5 68.4 68.4 2.1 5.8 3.2 44.8 77.9 0.00 0.2139277 56.6
2021-10-21 12:35:00 67.9 6.2 -1.1 67.9 67.9 3.0 6.0 3.4 55.8 80.9 0.00 0.2251467 57.0
2021-10-21 12:40:00 68.8 6.6 0.8 68.8 68.8 3.5 8.8 4.7 40.4 90.1 0.00 0.2241371 57.2
2021-10-21 12:45:00 68.2 7.0 1.7 68.2 68.2 4.9 8.8 4.6 116.1 94.5 0.00 0.2088518 57.5
2021-10-21 12:50:00 68.7 7.8 4.3 68.7 68.7 4.6 7.2 5.1 88.1 99.8 0.00 0.2235530 57.8
2021-10-21 12:55:00 69.1 7.3 3.1 69.1 69.1 7.2 7.2 3.5 113.5 111.3 0.00 0.2199831 58.1
2021-10-21 13:00:00 68.5 8.1 5.1 68.5 68.5 3.7 7.8 4.8 126.6 101.9 0.00 0.2048139 58.4
2021-10-21 13:05:00 69.2 5.9 -1.1 69.2 69.2 3.5 6.5 4.1 35.8 118.1 0.00 0.2192828 58.7
2021-10-21 13:10:00 68.6 8.0 5.0 68.6 68.6 8.1 10.6 5.2 114.0 109.2 0.00 0.2171200 58.9
2021-10-21 13:15:00 68.2 8.3 5.4 68.2 68.2 4.9 9.9 6.6 79.1 94.8 0.00 0.2181355 59.2
2021-10-21 13:20:00 67.9 7.9 4.1 67.9 67.9 5.6 8.5 6.5 96.4 93.5 0.00 0.2171750 59.5
2021-10-21 13:25:00 68.0 9.0 7.0 68.0 68.0 5.5 8.8 4.9 52.5 67.0 0.00 0.2167536 59.7
2021-10-21 13:30:00 68.9 6.1 -0.7 68.9 68.9 6.0 8.8 6.3 131.0 107.4 0.00 0.2146110 60.0
2021-10-21 13:35:00 69.4 7.6 4.4 69.4 69.4 6.5 10.6 6.5 68.8 129.9 0.00 0.2141591 60.2
2021-10-21 13:40:00 69.3 7.3 3.3 69.3 69.3 5.6 9.9 5.8 140.1 120.8 0.00 0.2147815 60.4
2021-10-21 13:45:00 69.4 7.8 4.9 69.4 69.4 9.4 9.4 5.2 97.1 109.9 0.00 0.2125932 60.6
2021-10-21 13:50:00 69.1 6.7 1.4 69.1 69.1 4.6 10.6 6.6 93.0 99.0 0.00 0.2089553 60.8
2021-10-21 13:55:00 68.8 4.7 -6.3 68.8 68.8 3.3 8.8 5.2 177.5 126.2 0.00 0.2028590 61.0
2021-10-21 14:00:00 69.2 7.6 4.2 69.2 69.2 4.4 8.0 4.9 119.5 118.9 0.00 0.2072400 61.1
2021-10-21 14:05:00 69.8 6.2 0.2 69.8 69.8 4.9 7.6 4.8 160.1 150.1 0.00 0.2049364 61.3
2021-10-21 14:10:00 69.2 7.3 3.4 69.2 69.2 8.5 8.5 5.7 96.6 137.9 0.00 0.1922090 61.4
2021-10-21 14:15:00 69.3 5.8 -1.4 69.3 69.3 4.6 10.6 5.4 215.8 166.8 0.00 0.1943218 61.5
2021-10-21 14:20:00 69.6 7.5 4.2 69.6 69.6 3.7 8.7 5.4 74.1 124.4 0.00 0.1952847 61.6
2021-10-21 14:25:00 69.3 4.9 -5.0 69.3 69.3 5.1 11.5 6.0 158.3 123.7 0.00 0.1958540 61.8
2021-10-21 14:30:00 69.3 6.7 1.5 69.3 69.3 5.5 10.1 5.5 105.0 117.1 0.00 0.1926820 61.9
2021-10-21 14:35:00 69.2 7.2 3.0 69.2 69.2 6.5 11.0 6.7 111.7 121.1 0.00 0.1896044 62.0
2021-10-21 14:40:00 68.8 7.5 3.6 68.8 68.8 4.0 9.9 6.4 121.5 102.4 0.00 0.1862858 62.1
2021-10-21 14:45:00 69.6 7.9 5.3 69.6 69.6 4.4 9.0 5.9 177.5 121.6 0.00 0.1838153 62.3
2021-10-21 14:50:00 69.4 6.9 2.2 69.4 69.4 8.0 8.0 5.1 110.5 137.5 0.00 0.1799197 62.4
2021-10-21 14:55:00 69.7 6.6 1.7 69.7 69.7 5.3 8.1 5.6 67.0 115.4 0.00 0.1771571 62.5
2021-10-21 15:00:00 69.7 5.4 -2.8 69.7 69.7 3.7 8.8 5.2 144.6 118.9 0.00 0.1736580 62.6
2021-10-21 15:05:00 69.2 5.9 -1.1 69.2 69.2 4.2 6.5 4.4 188.6 140.3 0.00 0.1693884 62.8
2021-10-21 15:10:00 69.9 8.1 6.1 69.9 69.9 3.7 5.3 3.8 106.4 141.6 0.00 0.1659885 62.9
2021-10-21 15:15:00 69.7 6.8 2.1 69.7 69.7 6.7 6.7 4.1 128.4 94.2 0.00 0.1626682 63.0
2021-10-21 15:20:00 69.9 7.4 4.0 69.9 69.9 4.6 8.7 4.6 97.8 117.9 0.00 0.1568554 63.1
2021-10-21 15:25:00 69.5 5.5 -2.7 69.5 69.5 3.5 7.6 4.6 122.6 158.9 0.00 0.1500162 63.2
2021-10-21 15:30:00 69.0 7.4 3.5 69.0 69.0 5.1 6.7 4.0 153.6 141.9 0.00 0.1113488 63.3
2021-10-21 15:35:00 68.2 6.9 1.3 68.2 68.2 4.0 8.5 4.6 167.1 174.5 0.00 0.0982962 63.4
2021-10-21 15:40:00 68.0 7.5 3.1 68.0 68.0 4.4 7.6 5.1 176.3 204.3 0.00 0.1307399 63.4
2021-10-21 15:45:00 69.0 7.5 3.6 69.0 69.0 3.1 6.5 4.8 114.1 132.5 0.00 0.1466438 63.5
2021-10-21 15:50:00 68.9 7.4 3.4 68.9 68.9 6.7 6.7 4.3 167.5 138.8 0.00 0.1319454 63.5
2021-10-21 15:55:00 69.0 7.4 3.5 69.0 69.0 3.7 6.2 3.3 117.5 145.4 0.00 0.1252824 63.5
2021-10-21 16:00:00 69.6 7.7 4.9 69.6 69.6 3.1 3.8 2.3 136.8 158.3 0.00 0.1269021 63.5
2021-10-21 16:05:00 69.7 6.1 -0.1 69.7 69.7 1.3 2.2 1.5 78.2 40.8 0.00 0.1012872 63.6
2021-10-21 16:10:00 69.2 6.3 0.1 69.2 69.2 7.6 7.6 3.5 317.8 311.3 0.00 0.1280957 63.6
2021-10-21 16:15:00 68.4 8.4 5.7 68.4 68.4 4.6 9.6 5.2 323.0 312.6 0.00 0.1362374 63.6
2021-10-21 16:20:00 67.9 8.7 6.3 67.9 67.9 5.3 10.3 7.0 292.2 292.0 0.00 0.1193757 63.5
2021-10-21 16:25:00 67.7 6.9 1.1 67.7 67.7 4.7 10.5 6.7 294.7 302.8 0.00 0.1063702 63.5
2021-10-21 16:30:00 67.7 7.5 2.8 67.7 67.7 7.4 10.1 5.7 322.2 318.8 0.00 0.0982568 63.5
2021-10-21 16:35:00 67.1 6.5 -0.7 67.1 67.1 6.3 11.9 7.2 12.1 328.4 0.00 0.0898714 63.5
2021-10-21 16:40:00 67.0 6.6 -0.5 67.0 67.0 3.1 9.4 6.6 298.9 332.4 0.00 0.0889781 63.4
2021-10-21 16:45:00 66.7 6.4 -1.3 66.7 66.7 10.6 11.3 5.7 345.7 323.4 0.00 0.0727363 63.4
2021-10-21 16:50:00 66.4 6.6 -0.9 66.4 66.4 4.0 10.8 7.1 305.6 323.5 0.00 0.0770869 63.4
2021-10-21 16:55:00 66.5 6.3 -1.9 66.5 66.5 9.4 9.4 5.5 307.0 310.0 0.00 0.0765735 63.3
2021-10-21 17:00:00 66.3 6.6 -0.8 66.3 66.3 5.6 8.8 6.1 347.0 320.2 0.00 0.0718708 63.2
2021-10-21 17:05:00 65.9 6.4 -1.8 65.9 65.9 10.6 11.9 6.2 320.0 316.0 0.00 0.0666522 63.1
2021-10-21 17:10:00 65.5 6.4 -2.3 65.5 65.5 5.1 10.6 6.8 336.6 320.0 0.00 0.0619503 63.0
2021-10-21 17:15:00 65.1 7.4 0.5 65.1 65.1 4.6 10.5 5.7 309.4 313.3 0.00 0.0643646 62.9
2021-10-21 17:20:00 64.9 7.2 -0.2 64.9 64.9 3.5 9.9 5.8 321.1 313.7 0.00 0.0428199 62.8
2021-10-21 17:25:00 64.6 6.4 -2.8 64.6 64.6 5.3 10.3 6.6 342.6 325.9 0.00 0.0282537 62.7
2021-10-21 17:30:00 63.9 6.6 -2.7 63.9 63.9 7.6 11.0 7.4 348.0 329.7 0.00 0.0233833 62.6
2021-10-21 17:35:00 63.2 7.0 -2.0 63.2 63.2 4.7 9.0 5.8 343.4 324.6 0.00 0.0166939 62.4
2021-10-21 17:40:00 62.8 6.8 -3.1 62.8 62.8 6.2 7.1 4.8 280.1 311.8 0.00 0.0151213 62.3
2021-10-21 17:45:00 62.2 7.2 -2.2 62.2 62.2 3.5 8.7 5.8 314.3 301.1 0.00 0.0107148 62.2
2021-10-21 17:50:00 62.0 7.1 -2.7 62.0 62.0 6.9 9.6 6.3 289.8 316.2 0.00 0.0069091 62.0
2021-10-21 17:55:00 61.4 7.3 -2.4 61.4 61.4 4.9 7.8 4.5 298.8 313.9 0.00 0.0037779 61.9
2021-10-21 18:00:00 60.9 6.9 -4.2 60.9 60.9 4.6 6.9 4.4 286.8 312.4 0.00 0.0022852 61.7
2021-10-21 18:05:00 60.4 7.5 -2.5 60.4 60.4 5.5 6.2 4.3 337.7 319.9 0.00 0.0010506 61.6
2021-10-21 18:10:00 60.3 7.2 -3.6 60.3 60.3 4.6 8.0 5.4 304.8 302.7 0.00 0.0003211 61.4
2021-10-21 18:15:00 60.0 7.1 -4.0 60.0 60.0 5.8 9.6 5.4 265.6 306.1 0.00 0.0000007 61.3
2021-10-21 18:20:00 60.1 7.7 -2.2 60.1 60.1 2.4 7.6 4.7 303.3 315.5 0.00 0.0000000 61.1
2021-10-21 18:25:00 59.8 7.4 -3.3 59.8 59.8 5.8 8.8 5.8 346.9 327.4 0.00 0.0000000 61.0
2021-10-21 18:30:00 59.7 8.3 -1.0 59.7 59.7 3.8 7.2 4.8 326.2 322.7 0.00 0.0000000 60.8
2021-10-21 18:35:00 59.3 10.6 3.9 59.3 59.3 2.8 7.1 3.1 161.8 317.9 0.00 0.0000000 60.7
2021-10-21 18:40:00 55.1 12.1 3.5 55.1 55.1 2.1 3.8 2.9 165.0 173.9 0.00 0.0000000 60.5
2021-10-21 18:45:00 53.3 14.3 5.7 53.3 53.3 1.7 2.2 0.7 78.9 141.6 0.00 0.0000000 60.3
2021-10-21 18:50:00 51.4 15.4 5.8 51.4 51.4 4.2 4.4 3.1 261.9 192.6 0.00 0.0000000 60.2
2021-10-21 18:55:00 50.8 15.1 4.9 50.8 50.8 4.0 4.9 3.6 291.2 275.6 0.00 0.0000000 60.0
2021-10-21 19:00:00 49.9 15.6 4.9 49.9 49.9 2.6 3.5 1.9 294.6 287.3 0.00 0.0000000 59.8
2021-10-21 19:05:00 49.3 17.9 7.4 49.3 49.3 1.0 3.0 1.8 250.7 259.0 0.00 0.0000000 59.7
2021-10-21 19:10:00 48.3 16.9 5.3 47.2 48.3 3.7 3.7 2.0 274.1 260.5 0.00 0.0000000 59.5
2021-10-21 19:15:00 47.3 19.4 7.5 47.3 47.3 2.6 4.0 2.6 247.9 252.4 0.00 0.0000000 59.3
2021-10-21 19:20:00 45.6 22.2 9.1 45.6 45.6 2.1 4.4 3.3 212.2 239.0 0.00 0.0000000 59.2
2021-10-21 19:25:00 44.1 22.1 7.7 44.1 44.1 2.8 3.7 2.7 215.5 239.8 0.00 0.0000000 59.0
2021-10-21 19:30:00 42.6 24.7 8.9 40.6 42.6 3.7 4.7 3.2 220.0 222.7 0.00 0.0000000 58.8
2021-10-21 19:35:00 41.8 28.1 11.1 41.8 41.8 2.6 4.9 3.2 219.2 234.6 0.00 0.0000000 58.7
2021-10-21 19:40:00 41.2 25.4 8.3 38.5 41.2 4.2 4.2 3.0 232.0 233.6 0.00 0.0000000 58.5
2021-10-21 19:45:00 41.9 26.4 9.8 41.9 41.9 3.0 4.7 3.5 222.3 241.2 0.00 0.0000000 58.4
2021-10-21 19:50:00 43.3 22.8 7.8 40.7 43.3 4.6 5.3 3.4 265.7 241.4 0.00 0.0000000 58.2
2021-10-21 19:55:00 45.6 20.9 7.8 44.0 45.6 3.7 6.0 4.1 294.4 283.9 0.00 0.0000000 58.0
2021-10-21 20:00:00 46.1 20.3 7.5 45.0 46.1 3.3 6.2 4.2 238.7 280.1 0.00 0.0000000 57.9
2021-10-21 20:05:00 46.0 20.5 7.6 44.8 46.0 3.3 6.3 4.0 254.5 273.4 0.00 0.0000000 57.7
2021-10-21 20:10:00 46.1 20.7 8.0 44.3 46.1 4.0 6.3 4.4 321.9 272.8 0.00 0.0000000 57.6
2021-10-21 20:15:00 44.2 22.8 8.5 43.0 44.2 3.1 5.6 3.9 194.8 242.2 0.00 0.0000000 57.5
2021-10-21 20:20:00 43.8 22.5 7.9 43.8 43.8 2.2 3.8 1.8 281.2 232.8 0.00 0.0000000 57.3
2021-10-21 20:25:00 44.0 22.0 7.5 42.7 44.0 3.1 3.3 2.8 221.4 264.8 0.00 0.0000000 57.2
2021-10-21 20:30:00 42.3 28.6 11.9 39.2 42.3 4.9 5.3 3.6 201.7 241.3 0.00 0.0000000 57.0
2021-10-21 20:35:00 39.1 30.8 10.8 39.1 39.1 2.4 4.9 3.6 254.0 228.4 0.00 0.0000000 56.9
2021-10-21 20:40:00 38.2 31.1 10.3 34.7 38.2 4.6 5.5 3.4 290.9 241.9 0.00 0.0000000 56.8
2021-10-21 20:45:00 39.2 30.6 10.8 39.2 39.2 3.0 4.6 3.0 235.7 245.9 0.00 0.0000000 56.6
2021-10-21 20:50:00 39.7 29.1 10.1 39.7 39.7 2.8 5.8 3.6 242.3 250.5 0.00 0.0000000 56.5
2021-10-21 20:55:00 38.9 31.2 11.0 38.9 38.9 0.0 4.4 2.8 187.8 206.0 0.00 0.0000000 56.4
2021-10-21 21:00:00 39.1 28.3 8.9 39.1 39.1 2.6 3.5 1.8 324.6 292.5 0.00 0.0000000 56.3
2021-10-21 21:05:00 38.6 32.2 11.4 36.1 38.6 3.7 5.1 3.6 225.8 245.5 0.00 0.0000000 56.1
2021-10-21 21:10:00 38.2 30.4 9.7 34.7 38.2 4.6 4.6 2.8 274.1 249.9 0.00 0.0000000 56.0
2021-10-21 21:15:00 38.8 30.2 10.1 38.8 38.8 2.4 5.3 3.3 341.6 254.8 0.00 0.0000000 55.9
2021-10-21 21:20:00 39.5 28.6 9.6 35.2 39.5 6.0 6.0 4.0 264.3 265.1 0.00 0.0000000 55.8
2021-10-21 21:25:00 39.6 28.9 9.8 36.2 39.6 4.7 6.3 4.0 265.9 276.3 0.00 0.0000000 55.7
2021-10-21 21:30:00 39.3 29.6 10.1 37.2 39.3 3.3 5.5 4.1 294.6 284.3 0.00 0.0000000 55.5
2021-10-21 21:35:00 38.4 31.6 10.8 38.4 38.4 2.2 3.7 2.2 288.2 241.6 0.00 0.0000000 55.4
2021-10-21 21:40:00 38.5 31.4 10.7 35.9 38.5 3.7 6.7 4.2 264.0 258.2 0.00 0.0000000 55.3
2021-10-21 21:45:00 39.6 28.2 9.3 35.5 39.6 5.6 9.6 5.8 283.1 267.2 0.00 0.0000000 55.2
2021-10-21 21:50:00 40.1 27.0 8.8 35.5 40.1 6.7 6.7 4.6 277.6 277.2 0.00 0.0000000 55.1
2021-10-21 21:55:00 39.7 30.6 11.2 35.9 39.7 5.3 5.6 4.4 219.8 240.3 0.00 0.0000000 55.0
2021-10-21 22:00:00 36.7 34.3 11.2 31.6 36.7 6.3 6.5 4.4 214.8 227.3 0.00 0.0000000 54.9
2021-10-21 22:05:00 36.5 35.1 11.5 32.7 36.5 4.6 6.3 5.0 273.7 257.6 0.00 0.0000000 54.8
2021-10-21 22:10:00 36.0 35.7 11.4 31.5 36.0 5.3 6.9 4.4 229.6 258.4 0.00 0.0000000 54.7
2021-10-21 22:15:00 37.0 32.9 10.5 33.3 37.0 4.6 6.5 5.0 308.6 265.7 0.00 0.0000000 54.6
2021-10-21 22:20:00 36.5 35.9 12.0 32.9 36.5 4.4 6.0 4.4 252.1 263.2 0.00 0.0000000 54.5
2021-10-21 22:25:00 36.8 34.7 11.4 33.9 36.8 3.7 5.8 3.9 263.2 243.3 0.00 0.0000000 54.4
2021-10-21 22:30:00 36.2 34.7 11.0 36.2 36.2 1.3 4.2 2.9 268.6 225.2 0.00 0.0000000 54.3
2021-10-21 22:35:00 35.0 39.4 12.8 35.0 35.0 1.7 2.4 1.0 227.0 238.1 0.00 0.0000000 54.2
2021-10-21 22:40:00 33.7 41.5 12.8 33.7 33.7 2.4 2.6 1.6 216.8 239.9 0.00 0.0000000 54.2
2021-10-21 22:45:00 32.6 42.9 12.5 29.6 32.6 3.3 3.8 2.7 226.7 238.7 0.00 0.0000000 54.1
2021-10-21 22:50:00 33.3 42.1 12.7 33.3 33.3 2.6 4.0 3.0 319.4 268.1 0.00 0.0000000 54.0
2021-10-21 22:55:00 33.7 40.4 12.2 30.7 33.7 3.5 4.6 3.1 296.3 288.5 0.00 0.0000000 53.9
2021-10-21 23:00:00 35.2 37.5 11.8 35.2 35.2 2.8 4.7 3.0 315.4 300.8 0.00 0.0000000 53.8
2021-10-21 23:05:00 35.8 37.0 12.1 35.8 35.8 2.6 4.2 3.3 261.3 277.1 0.00 0.0000000 53.7
2021-10-21 23:10:00 37.9 33.0 11.3 35.8 37.9 3.1 7.2 4.6 299.5 295.6 0.00 0.0000000 53.6
2021-10-21 23:15:00 35.5 38.7 12.8 32.1 35.5 4.0 5.1 4.0 229.5 228.2 0.00 0.0000000 53.5
2021-10-21 23:20:00 34.3 40.1 12.5 34.3 34.3 1.9 5.1 3.2 24.3 267.6 0.00 0.0000000 53.4
2021-10-21 23:25:00 34.9 36.1 10.6 34.9 34.9 2.8 3.3 2.3 316.8 294.9 0.00 0.0000000 53.3
2021-10-21 23:30:00 34.6 40.5 13.0 31.8 34.6 3.3 4.6 3.1 214.7 234.4 0.00 0.0000000 53.3
2021-10-21 23:35:00 33.4 42.6 13.0 33.4 33.4 2.8 4.6 2.8 309.2 235.4 0.00 0.0000000 53.2
2021-10-21 23:40:00 32.8 44.2 13.4 32.8 32.8 1.5 2.2 0.4 234.2 230.9 0.00 0.0000000 53.1
2021-10-21 23:45:00 32.1 44.3 12.8 32.1 32.1 1.7 1.9 0.7 303.0 274.3 0.00 0.0000000 53.0
2021-10-21 23:50:00 33.5 41.7 12.6 28.8 33.5 4.9 4.9 2.8 272.6 277.5 0.00 0.0000000 52.9
2021-10-21 23:55:00 33.3 42.7 13.1 29.4 33.3 4.2 6.3 4.2 287.8 277.0 0.00 0.0000000 52.8
2021-10-22 00:00:00 33.0 44.0 13.4 33.0 33.0 2.8 6.0 3.8 243.0 266.0 0.00 0.0000000 52.8
2021-10-22 00:05:00 33.0 44.2 13.5 33.0 33.0 1.9 4.4 3.4 301.8 292.6 0.00 0.0000000 52.7
2021-10-22 00:10:00 33.7 41.3 12.6 29.8 33.7 4.2 5.1 2.9 278.4 318.5 0.00 0.0000000 52.6
2021-10-22 00:15:00 34.3 41.2 13.2 31.5 34.3 3.3 5.8 4.2 289.4 275.9 0.00 0.0000000 52.5
2021-10-22 00:20:00 33.3 43.8 13.6 33.3 33.3 2.4 3.8 2.7 295.0 261.6 0.00 0.0000000 52.4
2021-10-22 00:25:00 33.6 42.9 13.4 33.6 33.6 1.2 4.0 2.8 283.0 294.0 0.00 0.0000000 52.4
2021-10-22 00:30:00 33.6 41.9 12.8 29.7 33.6 4.2 4.2 2.9 278.8 295.1 0.00 0.0000000 52.3
2021-10-22 00:35:00 34.6 40.3 12.8 31.2 34.6 3.8 4.9 3.4 260.1 306.4 0.00 0.0000000 52.3
2021-10-22 00:40:00 32.3 46.2 13.9 32.3 32.3 3.0 4.4 3.4 228.5 251.1 0.00 0.0000000 52.2
2021-10-22 00:45:00 30.9 47.7 13.3 25.6 30.9 5.1 6.0 4.4 259.2 264.0 0.00 0.0000000 52.1
2021-10-22 00:50:00 32.0 46.1 13.6 32.0 32.0 3.0 6.7 4.5 247.9 272.6 0.00 0.0000000 52.0
2021-10-22 00:55:00 32.0 45.9 13.5 27.8 32.0 4.2 7.1 5.0 243.0 249.7 0.00 0.0000000 52.0
2021-10-22 01:00:00 32.2 45.4 13.4 32.2 32.2 3.0 6.9 4.4 266.6 276.3 0.00 0.0000000 51.9
2021-10-22 01:05:00 32.5 44.7 13.3 29.2 32.5 3.5 6.5 4.6 257.5 260.8 0.00 0.0000000 51.8
2021-10-22 01:10:00 32.6 44.6 13.4 29.6 32.6 3.3 4.7 3.4 263.5 287.3 0.00 0.0000000 51.7
2021-10-22 01:15:00 32.7 44.3 13.3 27.9 32.7 4.9 6.7 4.8 271.3 286.2 0.00 0.0000000 51.7
2021-10-22 01:20:00 32.8 44.8 13.6 29.1 32.8 3.8 7.4 5.1 291.6 292.4 0.00 0.0000000 51.6
2021-10-22 01:25:00 31.8 46.5 13.6 28.2 31.8 3.7 5.6 3.4 249.6 276.1 0.00 0.0000000 51.5
2021-10-22 01:30:00 31.0 46.7 13.0 31.0 31.0 3.0 4.6 3.5 246.9 266.8 0.00 0.0000000 51.5
2021-10-22 01:35:00 31.6 45.4 12.9 26.7 31.6 4.9 6.7 4.7 263.6 275.1 0.00 0.0000000 51.4
2021-10-22 01:40:00 32.0 45.4 13.3 27.0 32.0 5.1 6.3 4.8 240.0 273.7 0.00 0.0000000 51.4
2021-10-22 01:45:00 32.4 45.1 13.4 27.9 32.4 4.6 8.3 5.7 255.7 268.2 0.00 0.0000000 51.3
2021-10-22 01:50:00 32.9 43.2 13.0 26.3 32.9 7.4 7.8 5.0 237.9 275.7 0.00 0.0000000 51.2
2021-10-22 01:55:00 33.5 42.5 13.1 30.6 33.5 3.3 8.8 5.5 320.7 272.2 0.00 0.0000000 51.2
2021-10-22 02:00:00 33.2 44.3 13.7 29.4 33.2 4.0 8.0 5.2 246.2 266.8 0.00 0.0000000 51.1
2021-10-22 02:05:00 32.5 44.1 13.0 27.6 32.5 5.1 6.5 4.6 233.8 269.9 0.00 0.0000000 51.1
2021-10-22 02:10:00 32.6 44.2 13.2 28.5 32.6 4.2 7.1 4.1 292.3 270.3 0.00 0.0000000 51.0
2021-10-22 02:15:00 33.5 41.7 12.7 28.9 33.5 4.9 6.9 5.0 282.5 282.9 0.00 0.0000000 50.9
2021-10-22 02:20:00 33.6 42.0 13.0 29.8 33.6 4.2 8.0 5.1 266.9 270.0 0.00 0.0000000 50.9
2021-10-22 02:25:00 33.5 42.1 12.9 29.2 33.5 4.6 8.3 5.1 286.4 280.4 0.00 0.0000000 50.8
2021-10-22 02:30:00 33.7 41.7 12.9 27.4 33.7 7.2 8.1 5.5 302.9 263.0 0.00 0.0000000 50.8
2021-10-22 02:35:00 33.3 42.7 13.0 29.1 33.3 4.4 7.4 5.4 279.7 261.1 0.00 0.0000000 50.7
2021-10-22 02:40:00 33.3 42.5 12.9 28.5 33.3 5.1 8.0 5.7 214.4 271.6 0.00 0.0000000 50.7
2021-10-22 02:45:00 32.6 44.3 13.2 28.5 32.6 4.2 7.4 5.4 240.6 248.0 0.00 0.0000000 50.6

Data is courtesy of the NM Climate Center. DO NOT USE IN LEGAL PROCEEDINGS.